<?xml version="1.0" encoding="UTF-8" standalone="no" ?>
<gpx xmlns="http://www.topografix.com/GPX/1/1" xmlns:xsi="http://www.w3.org/2001/XMLSchema-instance" xsi:schemaLocation="http://www.topografix.com/GPX/1/1 http://www.topografix.com/GPX/1/1/gpx.xsd" version="1.1" creator="VisuGPX - https://www.visugpx.com">
  <metadata>
    <name>secteur Saverne - Dabo - Petite Pierre</name>
  </metadata>
  <trk>
    <name><![CDATA[secteur Saverne - Dabo - Petite Pierre_27]]></name>
    <trkseg>
      <trkpt lat="48.73263" lon="7.28663">
        <ele>223.3</ele>
        <time>2020-08-14T14:34:01Z</time>
      </trkpt>
      <trkpt lat="48.73263" lon="7.28663">
        <ele>223.3</ele>
        <time>2020-08-14T14:34:01Z</time>
      </trkpt>
      <trkpt lat="48.73263" lon="7.28663">
        <ele>223.3</ele>
        <time>2020-08-14T14:34:01Z</time>
      </trkpt>
      <trkpt lat="48.73263" lon="7.28663">
        <ele>223.3</ele>
        <time>2020-08-14T14:34:01Z</time>
      </trkpt>
      <trkpt lat="48.73263" lon="7.28663">
        <ele>223.3</ele>
        <time>2020-08-14T14:34:01Z</time>
      </trkpt>
      <trkpt lat="48.73263" lon="7.28663">
        <ele>223.3</ele>
        <time>2020-08-14T14:34:01Z</time>
      </trkpt>
      <trkpt lat="48.73263" lon="7.28663">
        <ele>223.3</ele>
        <time>2020-08-14T14:34:01Z</time>
      </trkpt>
      <trkpt lat="48.73257" lon="7.28661">
        <ele>223.3</ele>
        <time>2020-08-14T14:34:05Z</time>
      </trkpt>
      <trkpt lat="48.73253" lon="7.28655">
        <ele>223.8</ele>
        <time>2020-08-14T14:34:08Z</time>
      </trkpt>
      <trkpt lat="48.7325" lon="7.28649">
        <ele>223.9</ele>
        <time>2020-08-14T14:34:11Z</time>
      </trkpt>
      <trkpt lat="48.7325" lon="7.28639">
        <ele>223.7</ele>
        <time>2020-08-14T14:34:14Z</time>
      </trkpt>
      <trkpt lat="48.7325" lon="7.28631">
        <ele>223.7</ele>
        <time>2020-08-14T14:34:16Z</time>
      </trkpt>
      <trkpt lat="48.73249" lon="7.2862">
        <ele>224</ele>
        <time>2020-08-14T14:34:18Z</time>
      </trkpt>
      <trkpt lat="48.7325" lon="7.28608">
        <ele>223.6</ele>
        <time>2020-08-14T14:34:20Z</time>
      </trkpt>
      <trkpt lat="48.73251" lon="7.28596">
        <ele>223.3</ele>
        <time>2020-08-14T14:34:22Z</time>
      </trkpt>
      <trkpt lat="48.73253" lon="7.28583">
        <ele>222.8</ele>
        <time>2020-08-14T14:34:24Z</time>
      </trkpt>
      <trkpt lat="48.73256" lon="7.2857">
        <ele>222.6</ele>
        <time>2020-08-14T14:34:26Z</time>
      </trkpt>
      <trkpt lat="48.73259" lon="7.28558">
        <ele>222.7</ele>
        <time>2020-08-14T14:34:28Z</time>
      </trkpt>
      <trkpt lat="48.73262" lon="7.28547">
        <ele>222.9</ele>
        <time>2020-08-14T14:34:30Z</time>
      </trkpt>
      <trkpt lat="48.73265" lon="7.28536">
        <ele>222.9</ele>
        <time>2020-08-14T14:34:32Z</time>
      </trkpt>
      <trkpt lat="48.73269" lon="7.28526">
        <ele>223.5</ele>
        <time>2020-08-14T14:34:34Z</time>
      </trkpt>
      <trkpt lat="48.73272" lon="7.28516">
        <ele>224.2</ele>
        <time>2020-08-14T14:34:36Z</time>
      </trkpt>
      <trkpt lat="48.73272" lon="7.28509">
        <ele>225.5</ele>
        <time>2020-08-14T14:34:39Z</time>
      </trkpt>
      <trkpt lat="48.73274" lon="7.285">
        <ele>226.4</ele>
        <time>2020-08-14T14:34:51Z</time>
      </trkpt>
      <trkpt lat="48.73277" lon="7.28491">
        <ele>225.6</ele>
        <time>2020-08-14T14:34:53Z</time>
      </trkpt>
      <trkpt lat="48.7328" lon="7.28482">
        <ele>224.5</ele>
        <time>2020-08-14T14:34:55Z</time>
      </trkpt>
      <trkpt lat="48.73284" lon="7.28472">
        <ele>223.8</ele>
        <time>2020-08-14T14:34:57Z</time>
      </trkpt>
      <trkpt lat="48.73288" lon="7.28461">
        <ele>222.9</ele>
        <time>2020-08-14T14:34:59Z</time>
      </trkpt>
      <trkpt lat="48.7329" lon="7.2845">
        <ele>222.6</ele>
        <time>2020-08-14T14:35:01Z</time>
      </trkpt>
      <trkpt lat="48.73294" lon="7.28433">
        <ele>222.5</ele>
        <time>2020-08-14T14:35:04Z</time>
      </trkpt>
      <trkpt lat="48.73296" lon="7.28419">
        <ele>223.1</ele>
        <time>2020-08-14T14:35:06Z</time>
      </trkpt>
      <trkpt lat="48.73299" lon="7.28404">
        <ele>223</ele>
        <time>2020-08-14T14:35:08Z</time>
      </trkpt>
      <trkpt lat="48.73302" lon="7.28393">
        <ele>223.1</ele>
        <time>2020-08-14T14:35:10Z</time>
      </trkpt>
      <trkpt lat="48.73304" lon="7.28385">
        <ele>223.8</ele>
        <time>2020-08-14T14:35:12Z</time>
      </trkpt>
      <trkpt lat="48.73307" lon="7.28377">
        <ele>224.6</ele>
        <time>2020-08-14T14:35:14Z</time>
      </trkpt>
      <trkpt lat="48.7331" lon="7.28367">
        <ele>225.2</ele>
        <time>2020-08-14T14:35:16Z</time>
      </trkpt>
      <trkpt lat="48.73315" lon="7.28356">
        <ele>225.7</ele>
        <time>2020-08-14T14:35:18Z</time>
      </trkpt>
      <trkpt lat="48.7332" lon="7.28347">
        <ele>226</ele>
        <time>2020-08-14T14:35:20Z</time>
      </trkpt>
      <trkpt lat="48.73324" lon="7.28338">
        <ele>226.1</ele>
        <time>2020-08-14T14:35:22Z</time>
      </trkpt>
      <trkpt lat="48.73327" lon="7.28325">
        <ele>226.3</ele>
        <time>2020-08-14T14:35:24Z</time>
      </trkpt>
      <trkpt lat="48.73329" lon="7.28313">
        <ele>226.5</ele>
        <time>2020-08-14T14:35:26Z</time>
      </trkpt>
      <trkpt lat="48.73332" lon="7.283">
        <ele>226.4</ele>
        <time>2020-08-14T14:35:28Z</time>
      </trkpt>
      <trkpt lat="48.73336" lon="7.28286">
        <ele>226.1</ele>
        <time>2020-08-14T14:35:30Z</time>
      </trkpt>
      <trkpt lat="48.7334" lon="7.28271">
        <ele>225.4</ele>
        <time>2020-08-14T14:35:32Z</time>
      </trkpt>
      <trkpt lat="48.73345" lon="7.28255">
        <ele>224.6</ele>
        <time>2020-08-14T14:35:34Z</time>
      </trkpt>
      <trkpt lat="48.73351" lon="7.28238">
        <ele>223.6</ele>
        <time>2020-08-14T14:35:36Z</time>
      </trkpt>
      <trkpt lat="48.73356" lon="7.2822">
        <ele>222.9</ele>
        <time>2020-08-14T14:35:38Z</time>
      </trkpt>
      <trkpt lat="48.73362" lon="7.28203">
        <ele>221.7</ele>
        <time>2020-08-14T14:35:40Z</time>
      </trkpt>
      <trkpt lat="48.73369" lon="7.28185">
        <ele>220.2</ele>
        <time>2020-08-14T14:35:42Z</time>
      </trkpt>
      <trkpt lat="48.73375" lon="7.28165">
        <ele>218.7</ele>
        <time>2020-08-14T14:35:44Z</time>
      </trkpt>
      <trkpt lat="48.7338" lon="7.28144">
        <ele>217.2</ele>
        <time>2020-08-14T14:35:46Z</time>
      </trkpt>
      <trkpt lat="48.73385" lon="7.28125">
        <ele>215.8</ele>
        <time>2020-08-14T14:35:48Z</time>
      </trkpt>
      <trkpt lat="48.73392" lon="7.28107">
        <ele>214.6</ele>
        <time>2020-08-14T14:35:50Z</time>
      </trkpt>
      <trkpt lat="48.734" lon="7.28093">
        <ele>214.1</ele>
        <time>2020-08-14T14:35:52Z</time>
      </trkpt>
      <trkpt lat="48.73408" lon="7.28081">
        <ele>213.8</ele>
        <time>2020-08-14T14:35:54Z</time>
      </trkpt>
      <trkpt lat="48.73412" lon="7.28069">
        <ele>213.8</ele>
        <time>2020-08-14T14:35:56Z</time>
      </trkpt>
      <trkpt lat="48.73416" lon="7.28058">
        <ele>213.2</ele>
        <time>2020-08-14T14:35:58Z</time>
      </trkpt>
      <trkpt lat="48.7342" lon="7.28049">
        <ele>213.2</ele>
        <time>2020-08-14T14:36:00Z</time>
      </trkpt>
      <trkpt lat="48.73424" lon="7.2804">
        <ele>213.8</ele>
        <time>2020-08-14T14:36:02Z</time>
      </trkpt>
      <trkpt lat="48.73427" lon="7.28032">
        <ele>215.3</ele>
        <time>2020-08-14T14:36:04Z</time>
      </trkpt>
      <trkpt lat="48.73431" lon="7.28026">
        <ele>216.7</ele>
        <time>2020-08-14T14:36:06Z</time>
      </trkpt>
      <trkpt lat="48.73434" lon="7.28018">
        <ele>217.9</ele>
        <time>2020-08-14T14:36:08Z</time>
      </trkpt>
      <trkpt lat="48.73438" lon="7.28008">
        <ele>219.1</ele>
        <time>2020-08-14T14:36:10Z</time>
      </trkpt>
      <trkpt lat="48.73444" lon="7.27995">
        <ele>221.6</ele>
        <time>2020-08-14T14:36:13Z</time>
      </trkpt>
      <trkpt lat="48.73446" lon="7.27987">
        <ele>223.4</ele>
        <time>2020-08-14T14:36:15Z</time>
      </trkpt>
      <trkpt lat="48.73449" lon="7.27978">
        <ele>224.9</ele>
        <time>2020-08-14T14:36:17Z</time>
      </trkpt>
      <trkpt lat="48.73453" lon="7.27969">
        <ele>226</ele>
        <time>2020-08-14T14:36:19Z</time>
      </trkpt>
      <trkpt lat="48.73457" lon="7.27961">
        <ele>226.9</ele>
        <time>2020-08-14T14:36:21Z</time>
      </trkpt>
      <trkpt lat="48.7346" lon="7.27952">
        <ele>228</ele>
        <time>2020-08-14T14:36:23Z</time>
      </trkpt>
      <trkpt lat="48.73462" lon="7.27943">
        <ele>228.2</ele>
        <time>2020-08-14T14:36:25Z</time>
      </trkpt>
      <trkpt lat="48.73461" lon="7.27933">
        <ele>228.5</ele>
        <time>2020-08-14T14:36:27Z</time>
      </trkpt>
      <trkpt lat="48.7346" lon="7.27918">
        <ele>229.3</ele>
        <time>2020-08-14T14:36:29Z</time>
      </trkpt>
      <trkpt lat="48.73462" lon="7.27903">
        <ele>228.8</ele>
        <time>2020-08-14T14:36:31Z</time>
      </trkpt>
      <trkpt lat="48.73464" lon="7.27886">
        <ele>229.6</ele>
        <time>2020-08-14T14:36:33Z</time>
      </trkpt>
      <trkpt lat="48.73468" lon="7.27871">
        <ele>229.8</ele>
        <time>2020-08-14T14:36:35Z</time>
      </trkpt>
      <trkpt lat="48.73472" lon="7.27855">
        <ele>230.1</ele>
        <time>2020-08-14T14:36:37Z</time>
      </trkpt>
      <trkpt lat="48.73479" lon="7.27842">
        <ele>229.7</ele>
        <time>2020-08-14T14:36:39Z</time>
      </trkpt>
      <trkpt lat="48.73484" lon="7.27835">
        <ele>229</ele>
        <time>2020-08-14T14:36:41Z</time>
      </trkpt>
      <trkpt lat="48.7349" lon="7.2783">
        <ele>228.3</ele>
        <time>2020-08-14T14:36:43Z</time>
      </trkpt>
      <trkpt lat="48.73496" lon="7.27823">
        <ele>228.5</ele>
        <time>2020-08-14T14:36:45Z</time>
      </trkpt>
      <trkpt lat="48.73499" lon="7.27813">
        <ele>227.7</ele>
        <time>2020-08-14T14:36:47Z</time>
      </trkpt>
      <trkpt lat="48.73501" lon="7.27802">
        <ele>226.9</ele>
        <time>2020-08-14T14:36:49Z</time>
      </trkpt>
      <trkpt lat="48.73503" lon="7.27792">
        <ele>226.1</ele>
        <time>2020-08-14T14:36:51Z</time>
      </trkpt>
      <trkpt lat="48.73507" lon="7.2778">
        <ele>225.3</ele>
        <time>2020-08-14T14:36:53Z</time>
      </trkpt>
      <trkpt lat="48.73511" lon="7.27769">
        <ele>224.8</ele>
        <time>2020-08-14T14:36:55Z</time>
      </trkpt>
      <trkpt lat="48.73517" lon="7.27756">
        <ele>224.7</ele>
        <time>2020-08-14T14:36:57Z</time>
      </trkpt>
      <trkpt lat="48.73522" lon="7.27741">
        <ele>224.4</ele>
        <time>2020-08-14T14:36:59Z</time>
      </trkpt>
      <trkpt lat="48.73528" lon="7.27725">
        <ele>225</ele>
        <time>2020-08-14T14:37:01Z</time>
      </trkpt>
      <trkpt lat="48.73535" lon="7.27711">
        <ele>224.8</ele>
        <time>2020-08-14T14:37:03Z</time>
      </trkpt>
      <trkpt lat="48.7354" lon="7.27697">
        <ele>225.1</ele>
        <time>2020-08-14T14:37:05Z</time>
      </trkpt>
      <trkpt lat="48.73545" lon="7.27683">
        <ele>225.6</ele>
        <time>2020-08-14T14:37:07Z</time>
      </trkpt>
      <trkpt lat="48.73553" lon="7.27671">
        <ele>225.1</ele>
        <time>2020-08-14T14:37:09Z</time>
      </trkpt>
      <trkpt lat="48.7356" lon="7.27659">
        <ele>226.1</ele>
        <time>2020-08-14T14:37:11Z</time>
      </trkpt>
      <trkpt lat="48.73569" lon="7.27649">
        <ele>225.9</ele>
        <time>2020-08-14T14:37:13Z</time>
      </trkpt>
      <trkpt lat="48.73575" lon="7.27639">
        <ele>224.2</ele>
        <time>2020-08-14T14:37:15Z</time>
      </trkpt>
      <trkpt lat="48.7358" lon="7.27628">
        <ele>223.5</ele>
        <time>2020-08-14T14:37:17Z</time>
      </trkpt>
      <trkpt lat="48.73588" lon="7.2762">
        <ele>223</ele>
        <time>2020-08-14T14:37:19Z</time>
      </trkpt>
      <trkpt lat="48.73595" lon="7.27612">
        <ele>222.2</ele>
        <time>2020-08-14T14:37:21Z</time>
      </trkpt>
      <trkpt lat="48.73601" lon="7.27602">
        <ele>222.5</ele>
        <time>2020-08-14T14:37:23Z</time>
      </trkpt>
      <trkpt lat="48.73609" lon="7.27592">
        <ele>223.6</ele>
        <time>2020-08-14T14:37:25Z</time>
      </trkpt>
      <trkpt lat="48.73617" lon="7.27581">
        <ele>224.6</ele>
        <time>2020-08-14T14:37:27Z</time>
      </trkpt>
      <trkpt lat="48.73626" lon="7.2757">
        <ele>225.2</ele>
        <time>2020-08-14T14:37:29Z</time>
      </trkpt>
      <trkpt lat="48.73634" lon="7.27559">
        <ele>226</ele>
        <time>2020-08-14T14:37:31Z</time>
      </trkpt>
      <trkpt lat="48.73641" lon="7.27547">
        <ele>226</ele>
        <time>2020-08-14T14:37:33Z</time>
      </trkpt>
      <trkpt lat="48.73649" lon="7.27533">
        <ele>226.2</ele>
        <time>2020-08-14T14:37:35Z</time>
      </trkpt>
      <trkpt lat="48.73658" lon="7.27519">
        <ele>225.8</ele>
        <time>2020-08-14T14:37:37Z</time>
      </trkpt>
      <trkpt lat="48.73666" lon="7.27505">
        <ele>226.5</ele>
        <time>2020-08-14T14:37:39Z</time>
      </trkpt>
      <trkpt lat="48.73675" lon="7.27493">
        <ele>226.4</ele>
        <time>2020-08-14T14:37:41Z</time>
      </trkpt>
      <trkpt lat="48.73683" lon="7.2748">
        <ele>226.3</ele>
        <time>2020-08-14T14:37:43Z</time>
      </trkpt>
      <trkpt lat="48.73692" lon="7.27469">
        <ele>225.9</ele>
        <time>2020-08-14T14:37:45Z</time>
      </trkpt>
      <trkpt lat="48.73697" lon="7.27459">
        <ele>226.1</ele>
        <time>2020-08-14T14:37:47Z</time>
      </trkpt>
      <trkpt lat="48.737" lon="7.27452">
        <ele>226.3</ele>
        <time>2020-08-14T14:37:50Z</time>
      </trkpt>
      <trkpt lat="48.73704" lon="7.2745">
        <ele>226.5</ele>
        <time>2020-08-14T14:38:09Z</time>
      </trkpt>
      <trkpt lat="48.73704" lon="7.27442">
        <ele>227.1</ele>
        <time>2020-08-14T14:38:28Z</time>
      </trkpt>
      <trkpt lat="48.73709" lon="7.27438">
        <ele>227.5</ele>
        <time>2020-08-14T14:38:33Z</time>
      </trkpt>
      <trkpt lat="48.73714" lon="7.27431">
        <ele>227.5</ele>
        <time>2020-08-14T14:38:37Z</time>
      </trkpt>
      <trkpt lat="48.73718" lon="7.27424">
        <ele>227.4</ele>
        <time>2020-08-14T14:38:39Z</time>
      </trkpt>
      <trkpt lat="48.73722" lon="7.27417">
        <ele>227.9</ele>
        <time>2020-08-14T14:38:42Z</time>
      </trkpt>
      <trkpt lat="48.73726" lon="7.27412">
        <ele>227.8</ele>
        <time>2020-08-14T14:38:44Z</time>
      </trkpt>
      <trkpt lat="48.7373" lon="7.27406">
        <ele>227.9</ele>
        <time>2020-08-14T14:38:46Z</time>
      </trkpt>
      <trkpt lat="48.73736" lon="7.27398">
        <ele>226.8</ele>
        <time>2020-08-14T14:38:48Z</time>
      </trkpt>
      <trkpt lat="48.73742" lon="7.2739">
        <ele>226.9</ele>
        <time>2020-08-14T14:38:50Z</time>
      </trkpt>
      <trkpt lat="48.73749" lon="7.27383">
        <ele>225.8</ele>
        <time>2020-08-14T14:38:52Z</time>
      </trkpt>
      <trkpt lat="48.73755" lon="7.27372">
        <ele>225.7</ele>
        <time>2020-08-14T14:38:54Z</time>
      </trkpt>
      <trkpt lat="48.73759" lon="7.2736">
        <ele>225.7</ele>
        <time>2020-08-14T14:38:56Z</time>
      </trkpt>
      <trkpt lat="48.73765" lon="7.27341">
        <ele>226.4</ele>
        <time>2020-08-14T14:38:59Z</time>
      </trkpt>
      <trkpt lat="48.7377" lon="7.27328">
        <ele>227.5</ele>
        <time>2020-08-14T14:39:01Z</time>
      </trkpt>
      <trkpt lat="48.73775" lon="7.27314">
        <ele>228</ele>
        <time>2020-08-14T14:39:03Z</time>
      </trkpt>
      <trkpt lat="48.73781" lon="7.27302">
        <ele>228.4</ele>
        <time>2020-08-14T14:39:05Z</time>
      </trkpt>
      <trkpt lat="48.73787" lon="7.27291">
        <ele>228.9</ele>
        <time>2020-08-14T14:39:07Z</time>
      </trkpt>
      <trkpt lat="48.73794" lon="7.2728">
        <ele>228.9</ele>
        <time>2020-08-14T14:39:10Z</time>
      </trkpt>
      <trkpt lat="48.738" lon="7.27269">
        <ele>229</ele>
        <time>2020-08-14T14:39:11Z</time>
      </trkpt>
      <trkpt lat="48.73805" lon="7.27259">
        <ele>229</ele>
        <time>2020-08-14T14:39:13Z</time>
      </trkpt>
      <trkpt lat="48.73813" lon="7.27243">
        <ele>229.3</ele>
        <time>2020-08-14T14:39:16Z</time>
      </trkpt>
      <trkpt lat="48.73818" lon="7.27232">
        <ele>230</ele>
        <time>2020-08-14T14:39:18Z</time>
      </trkpt>
      <trkpt lat="48.73822" lon="7.27221">
        <ele>230.4</ele>
        <time>2020-08-14T14:39:20Z</time>
      </trkpt>
      <trkpt lat="48.73825" lon="7.27209">
        <ele>231.1</ele>
        <time>2020-08-14T14:39:22Z</time>
      </trkpt>
      <trkpt lat="48.73828" lon="7.27196">
        <ele>231.6</ele>
        <time>2020-08-14T14:39:24Z</time>
      </trkpt>
      <trkpt lat="48.73834" lon="7.27182">
        <ele>231.5</ele>
        <time>2020-08-14T14:39:26Z</time>
      </trkpt>
      <trkpt lat="48.73839" lon="7.27169">
        <ele>231.9</ele>
        <time>2020-08-14T14:39:28Z</time>
      </trkpt>
      <trkpt lat="48.73846" lon="7.27148">
        <ele>232</ele>
        <time>2020-08-14T14:39:31Z</time>
      </trkpt>
      <trkpt lat="48.7385" lon="7.27133">
        <ele>231.8</ele>
        <time>2020-08-14T14:39:33Z</time>
      </trkpt>
      <trkpt lat="48.73853" lon="7.2712">
        <ele>231.4</ele>
        <time>2020-08-14T14:39:35Z</time>
      </trkpt>
      <trkpt lat="48.73857" lon="7.27108">
        <ele>231.5</ele>
        <time>2020-08-14T14:39:37Z</time>
      </trkpt>
      <trkpt lat="48.73861" lon="7.27095">
        <ele>231.3</ele>
        <time>2020-08-14T14:39:40Z</time>
      </trkpt>
      <trkpt lat="48.73864" lon="7.2707">
        <ele>233.1</ele>
        <time>2020-08-14T14:39:42Z</time>
      </trkpt>
      <trkpt lat="48.73865" lon="7.27054">
        <ele>234.4</ele>
        <time>2020-08-14T14:39:44Z</time>
      </trkpt>
      <trkpt lat="48.73865" lon="7.2704">
        <ele>235.5</ele>
        <time>2020-08-14T14:39:46Z</time>
      </trkpt>
      <trkpt lat="48.73862" lon="7.27017">
        <ele>236.8</ele>
        <time>2020-08-14T14:39:49Z</time>
      </trkpt>
      <trkpt lat="48.73861" lon="7.27004">
        <ele>237.7</ele>
        <time>2020-08-14T14:39:52Z</time>
      </trkpt>
      <trkpt lat="48.73859" lon="7.26982">
        <ele>238.8</ele>
        <time>2020-08-14T14:39:54Z</time>
      </trkpt>
      <trkpt lat="48.7386" lon="7.26966">
        <ele>239.2</ele>
        <time>2020-08-14T14:39:57Z</time>
      </trkpt>
      <trkpt lat="48.7386" lon="7.26949">
        <ele>240.2</ele>
        <time>2020-08-14T14:39:59Z</time>
      </trkpt>
      <trkpt lat="48.73861" lon="7.2692">
        <ele>240.4</ele>
        <time>2020-08-14T14:40:01Z</time>
      </trkpt>
      <trkpt lat="48.73861" lon="7.26891">
        <ele>240.7</ele>
        <time>2020-08-14T14:40:04Z</time>
      </trkpt>
      <trkpt lat="48.73861" lon="7.26872">
        <ele>241.2</ele>
        <time>2020-08-14T14:40:07Z</time>
      </trkpt>
      <trkpt lat="48.73861" lon="7.26843">
        <ele>242.5</ele>
        <time>2020-08-14T14:40:09Z</time>
      </trkpt>
      <trkpt lat="48.73861" lon="7.26826">
        <ele>242.4</ele>
        <time>2020-08-14T14:40:11Z</time>
      </trkpt>
      <trkpt lat="48.73862" lon="7.2681">
        <ele>242.7</ele>
        <time>2020-08-14T14:40:13Z</time>
      </trkpt>
      <trkpt lat="48.73864" lon="7.26794">
        <ele>242.9</ele>
        <time>2020-08-14T14:40:15Z</time>
      </trkpt>
      <trkpt lat="48.73866" lon="7.26777">
        <ele>243.5</ele>
        <time>2020-08-14T14:40:17Z</time>
      </trkpt>
      <trkpt lat="48.73867" lon="7.26757">
        <ele>243.4</ele>
        <time>2020-08-14T14:40:19Z</time>
      </trkpt>
      <trkpt lat="48.73869" lon="7.26738">
        <ele>243.8</ele>
        <time>2020-08-14T14:40:21Z</time>
      </trkpt>
      <trkpt lat="48.73871" lon="7.26719">
        <ele>243.9</ele>
        <time>2020-08-14T14:40:23Z</time>
      </trkpt>
      <trkpt lat="48.73877" lon="7.267">
        <ele>242.7</ele>
        <time>2020-08-14T14:40:25Z</time>
      </trkpt>
      <trkpt lat="48.73882" lon="7.26681">
        <ele>240.6</ele>
        <time>2020-08-14T14:40:27Z</time>
      </trkpt>
      <trkpt lat="48.73886" lon="7.26664">
        <ele>240.1</ele>
        <time>2020-08-14T14:40:29Z</time>
      </trkpt>
      <trkpt lat="48.73891" lon="7.26647">
        <ele>238.9</ele>
        <time>2020-08-14T14:40:31Z</time>
      </trkpt>
      <trkpt lat="48.73895" lon="7.26632">
        <ele>238.4</ele>
        <time>2020-08-14T14:40:34Z</time>
      </trkpt>
      <trkpt lat="48.73901" lon="7.26611">
        <ele>237.8</ele>
        <time>2020-08-14T14:40:36Z</time>
      </trkpt>
      <trkpt lat="48.73905" lon="7.26598">
        <ele>238.7</ele>
        <time>2020-08-14T14:40:38Z</time>
      </trkpt>
      <trkpt lat="48.7391" lon="7.2658">
        <ele>239</ele>
        <time>2020-08-14T14:40:40Z</time>
      </trkpt>
      <trkpt lat="48.73915" lon="7.26561">
        <ele>238.4</ele>
        <time>2020-08-14T14:40:42Z</time>
      </trkpt>
      <trkpt lat="48.73919" lon="7.26543">
        <ele>238.5</ele>
        <time>2020-08-14T14:40:44Z</time>
      </trkpt>
      <trkpt lat="48.73921" lon="7.26523">
        <ele>238.8</ele>
        <time>2020-08-14T14:40:46Z</time>
      </trkpt>
      <trkpt lat="48.73923" lon="7.26505">
        <ele>239</ele>
        <time>2020-08-14T14:40:48Z</time>
      </trkpt>
      <trkpt lat="48.73924" lon="7.26487">
        <ele>239.4</ele>
        <time>2020-08-14T14:40:50Z</time>
      </trkpt>
      <trkpt lat="48.73924" lon="7.26469">
        <ele>238.6</ele>
        <time>2020-08-14T14:40:52Z</time>
      </trkpt>
      <trkpt lat="48.73923" lon="7.26449">
        <ele>238.2</ele>
        <time>2020-08-14T14:40:54Z</time>
      </trkpt>
      <trkpt lat="48.73923" lon="7.2643">
        <ele>237.8</ele>
        <time>2020-08-14T14:40:56Z</time>
      </trkpt>
      <trkpt lat="48.73922" lon="7.26409">
        <ele>237</ele>
        <time>2020-08-14T14:40:58Z</time>
      </trkpt>
      <trkpt lat="48.73919" lon="7.26388">
        <ele>236.8</ele>
        <time>2020-08-14T14:41:00Z</time>
      </trkpt>
      <trkpt lat="48.73915" lon="7.26365">
        <ele>236.2</ele>
        <time>2020-08-14T14:41:02Z</time>
      </trkpt>
      <trkpt lat="48.73911" lon="7.2634">
        <ele>235.1</ele>
        <time>2020-08-14T14:41:04Z</time>
      </trkpt>
      <trkpt lat="48.73907" lon="7.26314">
        <ele>234.2</ele>
        <time>2020-08-14T14:41:06Z</time>
      </trkpt>
      <trkpt lat="48.73901" lon="7.2629">
        <ele>233.4</ele>
        <time>2020-08-14T14:41:08Z</time>
      </trkpt>
      <trkpt lat="48.73896" lon="7.26267">
        <ele>232.3</ele>
        <time>2020-08-14T14:41:10Z</time>
      </trkpt>
      <trkpt lat="48.73891" lon="7.26248">
        <ele>231.5</ele>
        <time>2020-08-14T14:41:12Z</time>
      </trkpt>
      <trkpt lat="48.73887" lon="7.2623">
        <ele>231.2</ele>
        <time>2020-08-14T14:41:14Z</time>
      </trkpt>
      <trkpt lat="48.73883" lon="7.26216">
        <ele>230.8</ele>
        <time>2020-08-14T14:41:16Z</time>
      </trkpt>
      <trkpt lat="48.7388" lon="7.26206">
        <ele>230.7</ele>
        <time>2020-08-14T14:41:18Z</time>
      </trkpt>
      <trkpt lat="48.73877" lon="7.26195">
        <ele>230.2</ele>
        <time>2020-08-14T14:41:20Z</time>
      </trkpt>
      <trkpt lat="48.73873" lon="7.26183">
        <ele>229.9</ele>
        <time>2020-08-14T14:41:22Z</time>
      </trkpt>
      <trkpt lat="48.73868" lon="7.26172">
        <ele>228.4</ele>
        <time>2020-08-14T14:41:24Z</time>
      </trkpt>
      <trkpt lat="48.73863" lon="7.2616">
        <ele>228.6</ele>
        <time>2020-08-14T14:41:26Z</time>
      </trkpt>
    </trkseg>
  </trk>
</gpx>